Time;durP1;ratioP1;P1;durP2;ratioP2;P2;SDS_P1;SDS_P2;PMS_P1;PMS_P2;Temp;Humidity;BMP_temperature;BMP_pressure;BME280_temperature;BME280_humidity;BME280_pressure;Samples;Min_cycle;Max_cycle;Signal;HPM_P1;HPM_P2
2023/03/31 00:02:00;;;;;;;2.25;0.98;;;14.10;99.90;;;;;;5057012;28;20198;-68
2023/03/31 00:04:31;;;;;;;4.60;1.27;;;14.10;99.90;;;;;;5068428;28;20208;-69
2023/03/31 00:06:57;;;;;;;2.25;1.00;;;14.10;99.90;;;;;;5068456;28;20178;-69
2023/03/31 00:09:22;;;;;;;2.38;0.82;;;14.00;99.90;;;;;;5069079;28;20274;-67
2023/03/31 00:11:49;;;;;;;3.63;1.00;;;14.00;99.90;;;;;;5056292;28;20212;-68
2023/03/31 00:14:16;;;;;;;1.58;0.60;;;14.00;99.90;;;;;;5067250;28;20200;-68
2023/03/31 00:16:42;;;;;;;2.05;0.60;;;14.00;99.90;;;;;;5071510;28;20267;-67
2023/03/31 00:19:16;;;;;;;2.22;0.80;;;14.00;99.90;;;;;;5088958;28;20232;-67
2023/03/31 00:21:43;;;;;;;2.42;0.70;;;14.00;99.90;;;;;;5064160;28;20242;-68
2023/03/31 00:24:13;;;;;;;1.05;0.52;;;13.90;99.90;;;;;;5074746;28;20444;-68
2023/03/31 00:26:39;;;;;;;2.13;0.80;;;14.00;99.90;;;;;;5066887;28;20197;-69
2023/03/31 00:29:06;;;;;;;1.45;0.50;;;13.90;99.90;;;;;;5066672;28;20267;-66
2023/03/31 00:31:33;;;;;;;1.73;0.70;;;13.90;99.90;;;;;;5069565;28;20188;-67
2023/03/31 00:34:01;;;;;;;1.83;0.70;;;13.80;99.90;;;;;;5074719;28;20193;-68
2023/03/31 00:36:27;;;;;;;1.25;0.60;;;13.80;99.90;;;;;;5075765;28;20195;-70
2023/03/31 00:38:55;;;;;;;0.88;0.57;;;13.80;99.90;;;;;;5075459;28;20335;-65
2023/03/31 00:41:21;;;;;;;2.80;0.70;;;13.80;99.90;;;;;;5075482;28;20169;-65
2023/03/31 00:44:09;;;;;;;1.92;0.57;;;13.80;99.90;;;;;;5091722;28;20260;-68
2023/03/31 00:46:43;;;;;;;1.05;0.60;;;13.80;99.90;;;;;;5095332;28;20257;-67
2023/03/31 00:49:22;;;;;;;1.52;0.50;;;13.80;99.90;;;;;;5095518;28;20239;-68
2023/03/31 00:51:52;;;;;;;2.63;0.68;;;13.80;99.90;;;;;;5055787;28;20168;-66
2023/03/31 00:54:20;;;;;;;1.92;0.70;;;13.70;99.90;;;;;;5055437;28;20229;-68
2023/03/31 00:56:47;;;;;;;1.20;0.50;;;13.70;99.90;;;;;;5055409;28;20180;-67
2023/03/31 00:59:13;;;;;;;2.55;0.60;;;13.70;99.90;;;;;;5063220;28;20187;-67
2023/03/31 01:01:45;;;;;;;1.55;0.50;;;13.80;99.90;;;;;;5095805;28;20238;-67
2023/03/31 01:04:13;;;;;;;1.05;0.70;;;13.70;99.90;;;;;;5068674;28;20177;-67
2023/03/31 01:06:51;;;;;;;3.00;0.88;;;13.70;99.90;;;;;;5058154;28;20181;-68
2023/03/31 01:09:21;;;;;;;1.77;0.50;;;13.70;99.90;;;;;;5072336;28;20177;-68
2023/03/31 01:11:47;;;;;;;2.83;0.60;;;13.60;99.90;;;;;;5056551;28;20223;-67
2023/03/31 01:14:15;;;;;;;3.15;0.60;;;13.70;99.90;;;;;;5064175;28;20220;-63
2023/03/31 01:16:41;;;;;;;1.70;0.63;;;13.60;99.90;;;;;;5068585;28;20162;-66
2023/03/31 01:19:23;;;;;;;1.17;0.50;;;13.60;99.90;;;;;;5063921;28;20273;-68
2023/03/31 01:22:22;;;;;;;2.88;0.60;;;13.60;99.90;;;;;;5066966;28;20262;-67
2023/03/31 01:25:21;;;;;;;1.88;0.70;;;13.60;99.90;;;;;;5062714;28;20193;-68
2023/03/31 01:28:07;;;;;;;2.05;0.80;;;13.70;99.90;;;;;;5058919;28;20177;-68
2023/03/31 01:30:46;;;;;;;3.28;0.95;;;13.60;99.90;;;;;;5067438;28;20176;-67
2023/03/31 01:33:36;;;;;;;4.95;0.93;;;13.60;99.90;;;;;;5070734;28;20181;-68
2023/03/31 01:36:26;;;;;;;1.80;0.75;;;13.70;99.90;;;;;;5073055;28;20212;-68
2023/03/31 01:39:26;;;;;;;3.40;1.15;;;13.70;99.90;;;;;;5072415;28;20177;-68
2023/03/31 01:41:58;;;;;;;3.88;1.00;;;13.70;99.90;;;;;;5071405;28;20198;-68
2023/03/31 01:45:06;;;;;;;3.30;1.08;;;13.70;99.90;;;;;;5087532;28;20165;-68
2023/03/31 01:47:53;;;;;;;4.78;1.20;;;13.70;99.90;;;;;;5063381;28;20188;-68
2023/03/31 01:50:29;;;;;;;3.00;1.02;;;13.80;99.90;;;;;;5074975;28;20192;-68
2023/03/31 01:53:21;;;;;;;3.88;1.48;;;13.80;99.90;;;;;;5074609;28;20180;-68
2023/03/31 01:56:06;;;;;;;3.75;0.98;;;13.80;99.90;;;;;;5056422;28;20263;-66
2023/03/31 01:58:48;;;;;;;3.40;1.10;;;13.80;99.90;;;;;;5054662;28;20196;-68
2023/03/31 02:01:20;;;;;;;2.40;1.15;;;13.80;99.90;;;;;;5054669;28;20165;-69
2023/03/31 02:03:55;;;;;;;3.50;1.10;;;13.90;99.90;;;;;;5054342;28;20193;-68
2023/03/31 02:06:26;;;;;;;4.85;1.00;;;13.90;99.90;;;;;;5054716;28;20184;-69
2023/03/31 02:09:02;;;;;;;5.95;1.42;;;13.90;99.90;;;;;;5069167;28;20183;-69
2023/03/31 02:11:32;;;;;;;4.18;1.35;;;13.90;99.90;;;;;;5074666;28;20231;-67
2023/03/31 02:14:01;;;;;;;4.85;1.35;;;13.90;99.90;;;;;;5069202;28;20196;-67
2023/03/31 02:16:33;;;;;;;4.57;1.33;;;13.90;99.90;;;;;;5069003;28;20188;-69
2023/03/31 02:19:02;;;;;;;2.70;0.90;;;13.90;99.90;;;;;;5054028;28;20173;-68
2023/03/31 02:21:33;;;;;;;4.28;1.27;;;13.90;99.90;;;;;;5059067;28;20216;-69
2023/03/31 02:24:10;;;;;;;2.42;1.05;;;13.80;99.90;;;;;;5056579;28;20291;-66
2023/03/31 02:26:41;;;;;;;4.13;1.00;;;13.90;99.90;;;;;;5066267;28;20226;-69
2023/03/31 02:29:09;;;;;;;2.53;1.02;;;13.90;99.90;;;;;;5062291;28;20187;-71
2023/03/31 02:32:01;;;;;;;1.60;0.70;;;13.90;99.90;;;;;;5070106;28;20212;-69
2023/03/31 02:34:29;;;;;;;2.40;0.90;;;13.90;99.90;;;;;;5062305;28;20208;-68
2023/03/31 02:36:55;;;;;;;1.92;0.73;;;13.90;99.90;;;;;;5055621;28;20181;-68
2023/03/31 02:39:26;;;;;;;2.33;0.90;;;13.90;99.90;;;;;;5070484;28;20208;-70
2023/03/31 02:41:54;;;;;;;2.03;0.82;;;13.90;99.90;;;;;;5104827;28;20234;-68
2023/03/31 02:44:22;;;;;;;2.20;0.77;;;13.90;99.90;;;;;;5054070;28;20173;-69
2023/03/31 02:46:49;;;;;;;2.92;1.00;;;13.80;99.90;;;;;;5060944;28;20176;-69
2023/03/31 02:49:18;;;;;;;2.17;0.90;;;13.80;99.90;;;;;;5079929;28;20238;-69
2023/03/31 02:52:13;;;;;;;4.57;1.00;;;13.80;99.90;;;;;;5079448;28;20184;-69
2023/03/31 02:54:38;;;;;;;4.28;1.30;;;13.80;99.90;;;;;;5070663;28;20193;-69
2023/03/31 02:57:19;;;;;;;2.95;1.10;;;13.80;99.90;;;;;;5095799;28;20271;-69
2023/03/31 02:59:50;;;;;;;3.33;1.00;;;13.80;99.90;;;;;;5063676;28;20200;-69
2023/03/31 03:02:16;;;;;;;3.58;0.90;;;13.70;99.90;;;;;;5073353;28;20193;-68
2023/03/31 03:04:58;;;;;;;2.85;1.02;;;13.70;99.90;;;;;;5064189;28;20231;-69
2023/03/31 03:07:28;;;;;;;2.15;0.93;;;13.70;99.90;;;;;;5062028;28;20196;-67
2023/03/31 03:10:12;;;;;;;4.03;0.98;;;13.70;99.90;;;;;;5074256;28;20180;-67
2023/03/31 03:13:07;;;;;;;3.63;0.90;;;13.70;99.90;;;;;;5077596;28;20266;-67
2023/03/31 03:15:44;;;;;;;5.60;0.88;;;13.70;99.90;;;;;;5075588;28;20209;-66
2023/03/31 03:18:13;;;;;;;1.92;0.80;;;13.70;99.90;;;;;;5098784;28;20322;-67
2023/03/31 03:20:47;;;;;;;2.03;0.95;;;13.60;99.90;;;;;;5092702;28;20229;-67
2023/03/31 03:23:18;;;;;;;4.60;1.00;;;13.70;99.90;;;;;;5057789;28;20173;-67
2023/03/31 03:25:46;;;;;;;2.38;0.70;;;13.70;99.90;;;;;;5058291;28;20282;-67
2023/03/31 03:28:12;;;;;;;3.33;1.27;;;13.70;99.90;;;;;;5058218;28;20217;-69
2023/03/31 03:30:38;;;;;;;3.05;1.00;;;13.70;99.90;;;;;;5062130;28;20230;-67
2023/03/31 03:33:05;;;;;;;3.60;1.10;;;13.70;99.90;;;;;;5091088;28;20204;-67
2023/03/31 03:35:34;;;;;;;3.10;1.05;;;13.70;99.90;;;;;;5063941;28;20259;-68
2023/03/31 03:38:02;;;;;;;2.63;0.82;;;13.70;99.90;;;;;;5099478;28;20193;-68
2023/03/31 03:40:28;;;;;;;3.35;1.00;;;13.70;99.90;;;;;;5072297;28;20185;-67
2023/03/31 03:42:54;;;;;;;3.92;1.10;;;13.60;99.90;;;;;;5057483;28;20184;-68
2023/03/31 03:45:19;;;;;;;2.80;0.90;;;13.60;99.90;;;;;;5057052;28;20239;-69
2023/03/31 03:47:49;;;;;;;2.40;0.90;;;13.60;99.90;;;;;;5056602;28;20230;-69
2023/03/31 03:50:17;;;;;;;2.60;1.05;;;13.60;99.90;;;;;;5090042;28;20183;-68
2023/03/31 03:52:43;;;;;;;2.22;0.93;;;13.60;99.90;;;;;;5094979;28;20176;-68
2023/03/31 03:55:12;;;;;;;2.35;1.00;;;13.60;99.90;;;;;;5056666;28;20224;-69
2023/03/31 03:57:38;;;;;;;3.30;1.10;;;13.60;99.90;;;;;;5056866;28;20174;-68
2023/03/31 04:00:09;;;;;;;2.38;1.10;;;13.60;99.90;;;;;;5056620;28;20184;-67
2023/03/31 04:02:37;;;;;;;2.53;0.90;;;13.60;99.90;;;;;;5075847;28;20219;-68
2023/03/31 04:05:04;;;;;;;4.85;1.00;;;13.60;99.90;;;;;;5076817;28;20168;-67
2023/03/31 04:07:32;;;;;;;1.27;0.85;;;13.60;99.90;;;;;;5075540;28;20190;-66
2023/03/31 04:10:00;;;;;;;2.25;0.90;;;13.50;99.90;;;;;;5073130;28;20205;-65
2023/03/31 04:12:25;;;;;;;1.98;0.80;;;13.60;99.90;;;;;;5067708;28;20185;-66
2023/03/31 04:14:51;;;;;;;3.00;0.73;;;13.50;99.90;;;;;;5076424;28;20196;-66
2023/03/31 04:17:31;;;;;;;1.70;0.70;;;13.60;99.90;;;;;;5076466;28;20195;-65
2023/03/31 04:20:03;;;;;;;1.55;0.80;;;13.60;99.90;;;;;;5070827;28;20181;-67
2023/03/31 04:22:39;;;;;;;2.45;0.98;;;13.60;99.90;;;;;;5072991;28;20206;-67
2023/03/31 04:25:13;;;;;;;2.00;0.80;;;13.50;99.90;;;;;;5058545;28;20250;-65
2023/03/31 04:27:45;;;;;;;1.20;0.65;;;13.50;99.90;;;;;;5100547;28;20172;-66
2023/03/31 04:30:13;;;;;;;3.30;1.15;;;13.50;99.90;;;;;;5074863;28;20484;-63
2023/03/31 04:32:38;;;;;;;2.30;1.13;;;13.50;99.90;;;;;;5068422;28;20177;-67
2023/03/31 04:35:06;;;;;;;1.77;0.77;;;13.50;99.90;;;;;;5065719;28;20216;-68
2023/03/31 04:37:33;;;;;;;1.35;0.77;;;13.40;99.90;;;;;;5066186;28;20250;-62
2023/03/31 04:40:06;;;;;;;1.40;0.70;;;13.40;99.90;;;;;;5069223;28;20207;-68
2023/03/31 04:42:35;;;;;;;1.60;0.68;;;13.40;99.90;;;;;;5074956;28;20196;-63
2023/03/31 04:45:03;;;;;;;0.98;0.55;;;13.30;99.90;;;;;;5071387;28;20188;-68
2023/03/31 04:47:34;;;;;;;1.60;0.73;;;13.40;99.90;;;;;;5076641;28;20211;-67
2023/03/31 04:49:59;;;;;;;2.67;0.90;;;13.30;99.90;;;;;;5075222;28;20160;-68
2023/03/31 04:52:25;;;;;;;2.40;0.80;;;13.30;99.90;;;;;;5074539;28;20313;-66
2023/03/31 04:54:50;;;;;;;1.73;0.70;;;13.30;99.90;;;;;;5074992;28;20208;-68
2023/03/31 04:57:16;;;;;;;2.08;0.77;;;13.30;99.90;;;;;;5074677;28;20174;-67
2023/03/31 04:59:44;;;;;;;3.38;0.82;;;13.30;99.90;;;;;;5065038;28;20181;-65
2023/03/31 05:02:14;;;;;;;2.90;0.77;;;13.30;99.90;;;;;;5096279;28;20332;-67
2023/03/31 05:04:40;;;;;;;3.15;0.70;;;13.30;99.90;;;;;;5054891;28;20170;-67
2023/03/31 05:07:07;;;;;;;1.98;0.80;;;13.30;99.90;;;;;;5054609;28;20201;-67
2023/03/31 05:09:33;;;;;;;1.95;0.77;;;13.30;99.90;;;;;;5078697;28;20204;-67
2023/03/31 05:11:59;;;;;;;1.77;0.85;;;13.30;99.90;;;;;;5074430;28;20200;-66
2023/03/31 05:14:27;;;;;;;1.13;0.73;;;13.30;99.90;;;;;;5074120;28;20215;-66
2023/03/31 05:16:56;;;;;;;3.80;1.05;;;13.30;99.90;;;;;;5074615;28;20192;-67
2023/03/31 05:19:22;;;;;;;1.58;0.70;;;13.30;99.90;;;;;;5073881;28;20176;-65
2023/03/31 05:21:48;;;;;;;1.63;0.77;;;13.30;99.90;;;;;;5074273;28;20179;-66
2023/03/31 05:24:16;;;;;;;1.80;0.60;;;13.30;99.90;;;;;;5074416;28;20169;-66
2023/03/31 05:26:47;;;;;;;1.73;0.50;;;13.30;99.90;;;;;;5074222;28;20188;-67
2023/03/31 05:29:13;;;;;;;2.05;0.80;;;13.30;99.90;;;;;;5074427;28;20172;-68
2023/03/31 05:31:38;;;;;;;2.58;0.70;;;13.30;99.90;;;;;;5074351;28;20187;-67
2023/03/31 05:34:06;;;;;;;1.50;0.80;;;13.40;99.90;;;;;;5074750;28;20232;-66
2023/03/31 05:36:32;;;;;;;2.10;0.70;;;13.40;99.90;;;;;;5074050;28;20184;-67
2023/03/31 05:38:58;;;;;;;2.33;1.00;;;13.40;99.90;;;;;;5073806;28;20172;-68
2023/03/31 05:41:23;;;;;;;0.93;0.52;;;13.40;99.90;;;;;;5074038;28;20207;-67
2023/03/31 05:43:49;;;;;;;0.73;0.50;;;13.40;99.90;;;;;;5066761;28;20173;-68
2023/03/31 05:46:17;;;;;;;0.73;0.50;;;13.40;99.90;;;;;;5054240;28;20169;-68
2023/03/31 05:48:43;;;;;;;1.40;0.50;;;13.50;99.90;;;;;;5054046;28;20250;-68
2023/03/31 05:51:11;;;;;;;0.85;0.50;;;13.40;99.90;;;;;;5053682;28;20197;-68
2023/03/31 05:53:40;;;;;;;0.88;0.40;;;13.50;99.90;;;;;;5066361;28;20272;-68
2023/03/31 05:56:07;;;;;;;2.13;0.60;;;13.50;99.90;;;;;;5073971;28;20212;-69
2023/03/31 05:58:38;;;;;;;1.73;0.50;;;13.50;99.90;;;;;;5066507;28;20177;-66
2023/03/31 06:01:12;;;;;;;1.35;0.50;;;13.50;99.90;;;;;;5053764;28;20181;-68
2023/03/31 06:03:40;;;;;;;1.05;0.43;;;13.50;99.90;;;;;;5054041;28;20165;-68
2023/03/31 06:06:09;;;;;;;1.75;0.50;;;13.40;99.90;;;;;;5053865;28;20169;-69
2023/03/31 06:08:36;;;;;;;1.35;0.50;;;13.40;99.90;;;;;;5054664;28;20258;-68
2023/03/31 06:11:10;;;;;;;1.45;0.55;;;13.40;99.90;;;;;;5066891;28;20196;-67
2023/03/31 06:13:39;;;;;;;1.05;0.50;;;13.40;99.90;;;;;;5073884;28;20229;-68
2023/03/31 06:16:06;;;;;;;0.88;0.32;;;13.30;99.90;;;;;;5073617;28;20197;-68
2023/03/31 06:18:35;;;;;;;0.57;0.40;;;13.30;99.90;;;;;;5074256;28;20201;-66
2023/03/31 06:21:01;;;;;;;0.65;0.30;;;13.20;99.90;;;;;;5073758;28;20172;-65
2023/03/31 06:23:27;;;;;;;1.02;0.52;;;13.20;99.90;;;;;;5073513;28;20179;-65
2023/03/31 06:26:05;;;;;;;1.00;0.30;;;13.30;99.90;;;;;;5073740;28;20267;-65
2023/03/31 06:28:30;;;;;;;0.82;0.40;;;13.20;99.90;;;;;;5073595;28;20224;-66
2023/03/31 06:31:16;;;;;;;0.47;0.30;;;13.30;99.90;;;;;;5074925;28;20211;-65
2023/03/31 06:33:42;;;;;;;0.65;0.22;;;13.20;99.90;;;;;;5077431;28;20172;-65
2023/03/31 06:36:11;;;;;;;1.17;0.30;;;13.20;99.90;;;;;;5077550;28;20203;-65
2023/03/31 06:38:38;;;;;;;1.02;0.50;;;13.30;99.90;;;;;;5077183;28;20169;-65
2023/03/31 06:41:05;;;;;;;0.50;0.25;;;13.20;99.90;;;;;;5073872;28;20169;-65
2023/03/31 06:43:31;;;;;;;0.20;0.20;;;13.30;99.90;;;;;;5077282;28;20267;-65
2023/03/31 06:46:00;;;;;;;0.17;0.17;;;13.30;99.90;;;;;;5077101;28;20404;-65
2023/03/31 06:48:26;;;;;;;0.40;0.30;;;13.30;99.90;;;;;;5077316;28;20180;-66
2023/03/31 06:50:58;;;;;;;0.77;0.30;;;13.30;99.90;;;;;;5064069;28;20203;-66
2023/03/31 06:53:23;;;;;;;0.50;0.20;;;13.30;99.90;;;;;;5065358;28;20184;-66
2023/03/31 06:55:52;;;;;;;0.80;0.30;;;13.30;99.90;;;;;;5077724;28;20204;-67
2023/03/31 06:58:21;;;;;;;0.45;0.35;;;13.30;99.90;;;;;;5077837;28;20165;-65
2023/03/31 07:00:49;;;;;;;0.50;0.30;;;13.40;99.90;;;;;;5077763;28;20168;-66
2023/03/31 07:03:21;;;;;;;1.15;0.50;;;13.40;99.90;;;;;;5077374;28;20204;-65
2023/03/31 07:05:56;;;;;;;0.70;0.32;;;13.40;99.90;;;;;;5077489;28;20184;-66
2023/03/31 07:08:24;;;;;;;0.73;0.40;;;13.40;99.90;;;;;;5077645;28;20215;-65
2023/03/31 07:10:57;;;;;;;0.63;0.35;;;13.50;99.90;;;;;;5077329;28;20223;-66
2023/03/31 07:13:24;;;;;;;1.42;0.32;;;13.50;99.90;;;;;;5077735;28;20176;-65
2023/03/31 07:15:52;;;;;;;0.88;0.40;;;13.60;99.90;;;;;;5077339;28;20226;-65
2023/03/31 07:18:24;;;;;;;1.10;0.40;;;13.70;99.90;;;;;;5077371;28;20168;-66
2023/03/31 07:20:50;;;;;;;0.90;0.40;;;13.70;99.90;;;;;;5077377;28;20169;-66
2023/03/31 07:23:17;;;;;;;0.52;0.40;;;13.80;99.90;;;;;;5077296;28;20375;-66
2023/03/31 07:25:42;;;;;;;1.05;0.63;;;13.90;99.90;;;;;;5077068;28;20185;-66
2023/03/31 07:28:11;;;;;;;1.13;0.40;;;14.00;99.90;;;;;;5076822;28;20187;-67
2023/03/31 07:30:39;;;;;;;3.00;0.50;;;14.00;99.90;;;;;;5076924;28;20197;-66
2023/03/31 07:33:05;;;;;;;0.85;0.60;;;14.00;99.90;;;;;;5077339;28;20229;-66
2023/03/31 07:35:30;;;;;;;1.58;0.50;;;14.00;99.90;;;;;;5076921;28;20287;-65
2023/03/31 07:37:58;;;;;;;1.23;0.50;;;14.10;99.90;;;;;;5077123;28;20318;-66
2023/03/31 07:40:29;;;;;;;0.60;0.40;;;14.10;99.90;;;;;;5072947;28;20198;-65
2023/03/31 07:42:57;;;;;;;1.00;0.52;;;14.20;99.90;;;;;;5073837;28;20193;-65
2023/03/31 07:45:27;;;;;;;0.70;0.50;;;14.10;99.90;;;;;;5073496;28;20260;-65
2023/03/31 07:47:55;;;;;;;2.28;0.50;;;14.20;99.90;;;;;;5076853;28;20206;-65
2023/03/31 07:50:24;;;;;;;1.25;0.60;;;14.20;99.90;;;;;;5076848;28;20173;-65
2023/03/31 07:52:50;;;;;;;1.50;0.65;;;14.30;99.90;;;;;;5076760;28;20226;-65
2023/03/31 07:55:16;;;;;;;1.45;0.77;;;14.30;99.90;;;;;;5076687;28;20208;-65
2023/03/31 07:57:44;;;;;;;1.42;0.80;;;14.40;99.90;;;;;;5076735;28;20173;-65
2023/03/31 08:00:11;;;;;;;1.75;0.70;;;14.40;99.90;;;;;;5076365;28;20323;-65
2023/03/31 08:02:38;;;;;;;1.48;0.60;;;14.40;99.90;;;;;;5076711;28;20249;-65
2023/03/31 08:05:05;;;;;;;2.42;0.93;;;14.40;99.90;;;;;;5076678;28;20179;-66
2023/03/31 08:07:36;;;;;;;3.42;0.90;;;14.50;99.90;;;;;;5076494;28;20203;-66
2023/03/31 08:10:06;;;;;;;1.23;0.68;;;14.50;99.90;;;;;;5072867;28;20181;-66
2023/03/31 08:12:32;;;;;;;2.30;0.80;;;14.50;99.90;;;;;;5056092;28;20181;-65
2023/03/31 08:14:58;;;;;;;1.38;0.75;;;14.60;99.90;;;;;;5068352;28;20219;-66
2023/03/31 08:17:23;;;;;;;2.13;0.70;;;14.70;99.90;;;;;;5076300;28;20173;-65
2023/03/31 08:19:51;;;;;;;1.98;0.90;;;14.70;99.90;;;;;;5073416;28;20227;-66
2023/03/31 08:22:19;;;;;;;2.17;0.90;;;14.80;99.90;;;;;;5056081;28;20243;-66
2023/03/31 08:24:46;;;;;;;3.47;0.95;;;14.80;99.90;;;;;;5089583;28;20275;-66
2023/03/31 08:27:11;;;;;;;3.75;1.08;;;14.90;99.90;;;;;;5056101;28;20205;-66
2023/03/31 08:29:40;;;;;;;4.35;1.33;;;14.90;99.90;;;;;;5055825;28;20183;-66
2023/03/31 08:32:08;;;;;;;1.83;0.82;;;14.90;99.90;;;;;;5055935;28;20246;-66
2023/03/31 08:34:41;;;;;;;1.42;0.80;;;15.00;99.90;;;;;;5055789;28;20201;-66
2023/03/31 08:37:08;;;;;;;4.13;1.08;;;15.00;99.90;;;;;;5055849;28;20166;-66
2023/03/31 08:39:36;;;;;;;2.70;0.98;;;15.00;99.90;;;;;;5072654;28;20200;-66
2023/03/31 08:42:27;;;;;;;2.22;0.90;;;15.10;99.90;;;;;;5075560;28;20192;-66
2023/03/31 08:45:13;;;;;;;2.95;1.00;;;15.10;99.90;;;;;;5075515;28;20228;-65
2023/03/31 08:47:43;;;;;;;3.45;1.08;;;15.10;99.90;;;;;;5076371;28;20172;-65
2023/03/31 08:50:18;;;;;;;2.40;0.80;;;15.20;99.90;;;;;;5075125;28;20262;-66
2023/03/31 08:53:09;;;;;;;1.92;0.70;;;15.30;99.90;;;;;;5075686;28;20200;-66
2023/03/31 08:56:00;;;;;;;3.05;1.00;;;15.30;99.90;;;;;;5101708;28;20291;-66
2023/03/31 08:58:42;;;;;;;4.22;1.20;;;15.40;99.90;;;;;;5075154;28;20234;-66
2023/03/31 09:01:07;;;;;;;5.07;1.30;;;15.60;99.90;;;;;;5072164;28;20172;-66
2023/03/31 09:03:59;;;;;;;3.70;1.25;;;15.60;99.90;;;;;;5054979;28;20169;-66
2023/03/31 09:06:48;;;;;;;3.80;1.42;;;15.70;99.90;;;;;;5055279;28;20173;-66
2023/03/31 09:09:51;;;;;;;3.10;1.23;;;15.80;99.90;;;;;;5088709;28;20180;-66
2023/03/31 09:12:45;;;;;;;5.25;1.33;;;15.90;99.90;;;;;;5100545;28;20203;-67
2023/03/31 09:15:19;;;;;;;3.72;1.48;;;16.00;99.90;;;;;;5054832;28;20197;-66
2023/03/31 09:17:48;;;;;;;3.88;1.42;;;16.10;99.90;;;;;;5073215;28;20178;-66
2023/03/31 09:20:22;;;;;;;3.75;1.42;;;16.20;99.90;;;;;;5065424;28;20562;-66
2023/03/31 09:22:56;;;;;;;4.35;1.63;;;16.30;99.90;;;;;;5055222;28;20193;-66
2023/03/31 09:25:33;;;;;;;5.47;1.70;;;16.30;99.90;;;;;;5054976;28;20173;-66
2023/03/31 09:28:03;;;;;;;4.43;1.40;;;16.40;99.90;;;;;;5054950;28;20220;-67
2023/03/31 09:30:30;;;;;;;4.85;1.40;;;16.40;99.90;;;;;;5055061;28;20181;-65
2023/03/31 09:33:11;;;;;;;3.10;1.30;;;16.40;99.90;;;;;;5057911;28;20234;-66
2023/03/31 09:35:37;;;;;;;5.68;1.60;;;16.50;99.90;;;;;;5074589;28;20231;-66
2023/03/31 09:38:05;;;;;;;5.15;1.85;;;16.50;99.90;;;;;;5074537;28;20169;-66
2023/03/31 09:40:33;;;;;;;4.75;1.27;;;16.50;99.90;;;;;;5074344;28;20184;-66
2023/03/31 09:43:20;;;;;;;6.07;1.50;;;16.50;99.90;;;;;;5074821;28;20173;-67
2023/03/31 09:45:48;;;;;;;5.22;1.50;;;16.60;99.90;;;;;;5071519;28;20169;-66
2023/03/31 09:48:19;;;;;;;4.43;1.48;;;16.60;99.90;;;;;;5054566;28;20201;-66
2023/03/31 09:51:06;;;;;;;5.28;1.25;;;16.60;99.90;;;;;;5073279;28;20200;-65
2023/03/31 09:53:57;;;;;;;3.67;1.35;;;16.70;99.90;;;;;;5074790;28;20223;-65
2023/03/31 09:56:41;;;;;;;5.40;1.80;;;16.70;99.90;;;;;;5074754;28;20180;-65
2023/03/31 09:59:40;;;;;;;5.07;1.42;;;16.70;99.90;;;;;;5074619;28;20314;-66
2023/03/31 10:02:34;;;;;;;2.88;1.20;;;16.70;99.90;;;;;;5106325;28;20204;-66
2023/03/31 10:05:00;;;;;;;3.78;1.23;;;16.70;99.90;;;;;;5103146;28;20172;-67
2023/03/31 10:07:29;;;;;;;3.85;1.40;;;16.70;99.90;;;;;;5077519;28;20261;-66
2023/03/31 10:09:56;;;;;;;3.08;1.27;;;16.70;99.90;;;;;;5078295;28;20176;-66
2023/03/31 10:12:26;;;;;;;4.25;1.50;;;16.70;99.90;;;;;;5078379;28;20249;-66
2023/03/31 10:15:01;;;;;;;4.05;1.50;;;16.70;99.90;;;;;;5078724;28;20196;-66
2023/03/31 10:17:35;;;;;;;6.78;1.65;;;16.70;99.90;;;;;;5078544;28;20171;-66
2023/03/31 10:20:16;;;;;;;4.32;1.67;;;16.60;99.90;;;;;;5078944;28;20203;-66
2023/03/31 10:22:45;;;;;;;4.90;1.73;;;16.60;99.90;;;;;;5074378;28;20177;-66
2023/03/31 10:25:21;;;;;;;4.93;1.40;;;16.50;99.90;;;;;;5077913;28;20246;-64
2023/03/31 10:27:51;;;;;;;4.57;1.20;;;16.40;99.90;;;;;;5077665;28;20270;-66
2023/03/31 10:30:28;;;;;;;5.38;1.73;;;16.40;99.90;;;;;;5077685;28;20242;-67
2023/03/31 10:32:53;;;;;;;3.65;1.48;;;16.30;99.90;;;;;;5077490;28;20196;-65
2023/03/31 10:35:32;;;;;;;3.85;1.35;;;16.20;99.90;;;;;;5077480;28;20203;-68
2023/03/31 10:38:07;;;;;;;4.10;1.25;;;16.10;99.90;;;;;;5072621;28;20196;-66
2023/03/31 10:40:35;;;;;;;4.47;1.20;;;15.90;99.90;;;;;;5090847;28;20172;-66
2023/03/31 10:43:24;;;;;;;3.22;1.65;;;15.70;99.90;;;;;;5075457;28;20223;-65
2023/03/31 10:45:55;;;;;;;2.42;1.10;;;15.60;99.90;;;;;;5077398;28;20172;-67
2023/03/31 10:48:31;;;;;;;3.60;1.20;;;15.50;99.90;;;;;;5077777;28;20255;-65
2023/03/31 10:51:09;;;;;;;4.72;1.30;;;15.30;99.90;;;;;;5077296;28;20211;-66
2023/03/31 10:53:51;;;;;;;3.65;1.20;;;15.10;99.90;;;;;;5077625;28;20225;-66
2023/03/31 10:56:30;;;;;;;4.10;1.20;;;14.80;99.90;;;;;;5077270;28;20187;-66
2023/03/31 10:59:14;;;;;;;6.13;1.58;;;14.60;99.90;;;;;;5077082;28;20172;-66
2023/03/31 11:02:34;;;;;;;3.63;1.08;;;14.40;99.90;;;;;;5076770;28;20163;-66
2023/03/31 11:05:34;;;;;;;4.00;1.30;;;14.30;99.90;;;;;;5039049;28;20192;-66
2023/03/31 11:08:27;;;;;;;2.25;1.10;;;14.20;99.90;;;;;;5039034;28;20173;-66
2023/03/31 11:10:53;;;;;;;3.92;1.20;;;14.20;99.90;;;;;;5089881;28;20204;-66
2023/03/31 11:13:21;;;;;;;2.83;0.80;;;14.10;99.90;;;;;;5057168;28;20177;-66
2023/03/31 11:16:06;;;;;;;3.42;1.08;;;14.10;99.90;;;;;;5056802;28;20213;-66
2023/03/31 11:18:58;;;;;;;3.38;1.05;;;14.20;99.90;;;;;;5057034;28;20169;-66
2023/03/31 11:21:50;;;;;;;3.05;1.00;;;14.10;99.90;;;;;;5056650;28;20264;-66
2023/03/31 11:24:41;;;;;;;2.75;1.20;;;14.20;99.90;;;;;;5069486;28;20181;-65
2023/03/31 11:27:22;;;;;;;7.68;2.28;;;14.20;99.90;;;;;;5056572;28;20173;-66
2023/03/31 11:30:19;;;;;;;5.30;2.50;;;14.30;99.90;;;;;;5056165;28;20169;-67
2023/03/31 11:33:15;;;;;;;8.98;3.55;;;14.40;99.90;;;;;;5056589;28;20181;-66
2023/03/31 11:36:13;;;;;;;4.57;1.77;;;14.50;99.90;;;;;;5056219;28;20213;-65
2023/03/31 11:38:49;;;;;;;5.20;1.83;;;14.60;99.90;;;;;;5087369;28;20185;-66
2023/03/31 11:41:20;;;;;;;3.25;1.38;;;14.70;99.90;;;;;;5076674;28;20261;-66
2023/03/31 11:43:47;;;;;;;3.22;1.20;;;14.80;99.90;;;;;;5076801;28;20184;-67
2023/03/31 11:46:43;;;;;;;3.47;1.20;;;15.00;99.90;;;;;;5059706;28;20241;-66
2023/03/31 11:49:37;;;;;;;4.63;0.98;;;15.10;99.90;;;;;;5076343;28;20200;-66
2023/03/31 11:52:30;;;;;;;5.18;1.48;;;15.10;99.90;;;;;;5076314;28;20164;-66
2023/03/31 11:55:06;;;;;;;3.78;1.23;;;15.20;99.90;;;;;;5076255;28;20246;-66
2023/03/31 11:57:40;;;;;;;4.07;1.20;;;15.20;99.90;;;;;;5076356;28;20179;-67
2023/03/31 12:00:20;;;;;;;6.63;1.90;;;15.30;99.90;;;;;;5059403;28;20283;-67
2023/03/31 12:03:08;;;;;;;7.30;1.70;;;15.30;99.90;;;;;;5076338;28;20175;-67
2023/03/31 12:05:39;;;;;;;4.05;1.30;;;15.30;99.90;;;;;;5076253;28;20173;-68
2023/03/31 12:08:16;;;;;;;4.65;1.13;;;15.30;99.90;;;;;;5055933;28;20169;-67
2023/03/31 12:11:00;;;;;;;2.60;1.00;;;15.20;99.90;;;;;;5055651;28;20201;-68
2023/03/31 12:14:05;;;;;;;3.22;0.88;;;15.10;99.90;;;;;;5074675;28;20192;-68
2023/03/31 12:16:31;;;;;;;1.67;0.60;;;14.90;99.90;;;;;;5075868;28;20180;-67
2023/03/31 12:19:03;;;;;;;1.50;0.63;;;14.80;99.90;;;;;;5075770;28;20207;-67
2023/03/31 12:21:33;;;;;;;1.45;0.60;;;14.70;99.90;;;;;;5075941;28;20183;-67
2023/03/31 12:23:59;;;;;;;1.70;0.57;;;14.70;99.90;;;;;;5063857;28;20188;-68
2023/03/31 12:26:35;;;;;;;1.92;0.75;;;14.80;99.90;;;;;;5055365;28;20174;-67
2023/03/31 12:29:13;;;;;;;1.65;0.73;;;14.70;99.90;;;;;;5062307;28;20164;-67
2023/03/31 12:31:47;;;;;;;1.90;0.98;;;14.80;99.90;;;;;;5075220;28;20196;-66
2023/03/31 12:34:18;;;;;;;1.77;0.65;;;14.80;99.90;;;;;;5075292;28;20204;-67
2023/03/31 12:37:14;;;;;;;2.67;0.88;;;14.90;99.90;;;;;;5075383;28;20165;-67
2023/03/31 12:39:39;;;;;;;1.65;0.80;;;14.90;99.90;;;;;;5075377;28;20185;-67
2023/03/31 12:42:14;;;;;;;2.47;0.80;;;15.00;99.90;;;;;;5075106;28;20175;-67
2023/03/31 12:45:01;;;;;;;1.75;0.70;;;15.00;99.90;;;;;;5075408;28;20195;-67
2023/03/31 12:47:44;;;;;;;2.33;0.90;;;15.10;99.90;;;;;;5075395;28;20168;-67
2023/03/31 12:50:24;;;;;;;2.40;0.93;;;15.20;99.90;;;;;;5075397;28;20200;-67
2023/03/31 12:52:58;;;;;;;3.83;1.20;;;15.30;99.90;;;;;;5075366;28;20216;-67
2023/03/31 12:55:30;;;;;;;2.40;1.08;;;15.30;99.90;;;;;;5075592;28;20486;-67
2023/03/31 12:58:23;;;;;;;3.67;1.20;;;15.40;99.90;;;;;;5064276;28;20184;-67
2023/03/31 13:01:22;;;;;;;4.80;1.35;;;15.60;99.90;;;;;;5055255;28;20177;-67
2023/03/31 13:04:26;;;;;;;3.47;0.98;;;15.70;99.90;;;;;;5055446;28;20225;-65
2023/03/31 13:06:58;;;;;;;4.25;1.10;;;15.80;99.90;;;;;;5088428;28;20268;-66
2023/03/31 13:09:30;;;;;;;4.20;1.80;;;16.00;99.90;;;;;;5059577;28;20193;-68
2023/03/31 13:11:56;;;;;;;5.78;1.90;;;16.10;99.90;;;;;;5075063;28;20188;-66
2023/03/31 13:14:25;;;;;;;4.85;1.60;;;16.10;99.90;;;;;;5068458;28;20197;-66
2023/03/31 13:17:13;;;;;;;4.60;1.20;;;16.20;99.90;;;;;;5072272;28;20200;-66
2023/03/31 13:19:40;;;;;;;5.55;1.48;;;16.30;99.90;;;;;;5072042;28;20191;-65
2023/03/31 13:22:26;;;;;;;5.57;1.50;;;16.20;99.90;;;;;;5071469;28;20267;-66